sensor_id;sensor_type;location;lat;lon;timestamp;P1;durP1;ratioP1;P2;durP2;ratioP2
58362;SDS011;54977;51.510;7.522;2022-09-12T00:01:45;31.02;;;15.68;;
58362;SDS011;54977;51.510;7.522;2022-09-12T00:06:47;29.42;;;15.88;;
58362;SDS011;54977;51.510;7.522;2022-09-12T00:11:51;32.03;;;15.23;;
58362;SDS011;54977;51.510;7.522;2022-09-12T00:16:56;35.78;;;16.05;;
58362;SDS011;54977;51.510;7.522;2022-09-12T00:21:58;34.28;;;17.35;;
58362;SDS011;54977;51.510;7.522;2022-09-12T00:27:02;38.80;;;17.17;;
58362;SDS011;54977;51.510;7.522;2022-09-12T00:32:04;37.83;;;17.35;;
58362;SDS011;54977;51.510;7.522;2022-09-12T00:37:06;38.45;;;15.90;;
58362;SDS011;54977;51.510;7.522;2022-09-12T00:42:10;38.95;;;17.00;;
58362;SDS011;54977;51.510;7.522;2022-09-12T00:47:13;42.55;;;17.60;;
58362;SDS011;54977;51.510;7.522;2022-09-12T00:52:18;40.78;;;16.63;;
58362;SDS011;54977;51.510;7.522;2022-09-12T00:57:23;39.60;;;16.75;;
58362;SDS011;54977;51.510;7.522;2022-09-12T01:02:28;35.47;;;17.05;;
58362;SDS011;54977;51.510;7.522;2022-09-12T01:07:30;39.47;;;16.08;;
58362;SDS011;54977;51.510;7.522;2022-09-12T01:12:33;39.20;;;17.08;;
58362;SDS011;54977;51.510;7.522;2022-09-12T01:17:40;44.13;;;18.50;;
58362;SDS011;54977;51.510;7.522;2022-09-12T01:22:51;33.45;;;14.63;;
58362;SDS011;54977;51.510;7.522;2022-09-12T01:28:04;38.43;;;16.03;;
58362;SDS011;54977;51.510;7.522;2022-09-12T01:33:17;35.67;;;15.95;;
58362;SDS011;54977;51.510;7.522;2022-09-12T01:38:26;30.30;;;15.38;;
58362;SDS011;54977;51.510;7.522;2022-09-12T01:43:32;37.42;;;15.60;;
58362;SDS011;54977;51.510;7.522;2022-09-12T01:48:37;34.30;;;15.90;;
58362;SDS011;54977;51.510;7.522;2022-09-12T01:53:42;40.15;;;16.67;;
58362;SDS011;54977;51.510;7.522;2022-09-12T01:58:46;30.90;;;14.88;;
58362;SDS011;54977;51.510;7.522;2022-09-12T02:03:52;36.40;;;15.52;;
58362;SDS011;54977;51.510;7.522;2022-09-12T02:08:57;39.88;;;16.52;;
58362;SDS011;54977;51.510;7.522;2022-09-12T02:14:00;38.30;;;15.80;;
58362;SDS011;54977;51.510;7.522;2022-09-12T02:19:06;33.08;;;14.98;;
58362;SDS011;54977;51.510;7.522;2022-09-12T02:24:09;34.13;;;14.70;;
58362;SDS011;54977;51.510;7.522;2022-09-12T02:29:13;31.40;;;14.35;;
58362;SDS011;54977;51.510;7.522;2022-09-12T02:34:21;36.20;;;15.70;;
58362;SDS011;54977;51.510;7.522;2022-09-12T02:39:25;32.55;;;14.60;;
58362;SDS011;54977;51.510;7.522;2022-09-12T02:44:27;36.95;;;15.55;;
58362;SDS011;54977;51.510;7.522;2022-09-12T02:49:31;35.17;;;15.13;;
58362;SDS011;54977;51.510;7.522;2022-09-12T02:54:34;31.45;;;14.02;;
58362;SDS011;54977;51.510;7.522;2022-09-12T02:59:36;32.17;;;14.23;;
58362;SDS011;54977;51.510;7.522;2022-09-12T03:10:13;32.13;;;14.03;;
58362;SDS011;54977;51.510;7.522;2022-09-12T03:15:21;29.63;;;13.77;;
58362;SDS011;54977;51.510;7.522;2022-09-12T03:20:31;32.67;;;13.68;;
58362;SDS011;54977;51.510;7.522;2022-09-12T03:25:40;30.15;;;15.32;;
58362;SDS011;54977;51.510;7.522;2022-09-12T03:30:44;32.80;;;15.40;;
58362;SDS011;54977;51.510;7.522;2022-09-12T03:35:47;25.95;;;13.02;;
58362;SDS011;54977;51.510;7.522;2022-09-12T03:40:51;30.30;;;14.05;;
58362;SDS011;54977;51.510;7.522;2022-09-12T03:45:53;28.20;;;13.13;;
58362;SDS011;54977;51.510;7.522;2022-09-12T03:50:58;34.42;;;14.25;;
58362;SDS011;54977;51.510;7.522;2022-09-12T03:56:05;32.75;;;15.73;;
58362;SDS011;54977;51.510;7.522;2022-09-12T04:01:08;31.20;;;13.82;;
58362;SDS011;54977;51.510;7.522;2022-09-12T04:06:12;31.58;;;14.32;;
58362;SDS011;54977;51.510;7.522;2022-09-12T04:11:16;31.20;;;14.65;;
58362;SDS011;54977;51.510;7.522;2022-09-12T04:16:18;34.30;;;14.98;;
58362;SDS011;54977;51.510;7.522;2022-09-12T04:21:21;30.05;;;14.25;;
58362;SDS011;54977;51.510;7.522;2022-09-12T04:26:24;30.13;;;14.40;;
58362;SDS011;54977;51.510;7.522;2022-09-12T04:31:28;27.80;;;14.23;;
58362;SDS011;54977;51.510;7.522;2022-09-12T04:36:30;30.92;;;14.95;;
58362;SDS011;54977;51.510;7.522;2022-09-12T04:41:35;37.25;;;15.02;;
58362;SDS011;54977;51.510;7.522;2022-09-12T04:46:38;35.28;;;15.57;;
58362;SDS011;54977;51.510;7.522;2022-09-12T04:51:41;32.85;;;14.95;;
58362;SDS011;54977;51.510;7.522;2022-09-12T04:56:45;26.30;;;13.07;;
58362;SDS011;54977;51.510;7.522;2022-09-12T05:01:48;27.52;;;14.32;;
58362;SDS011;54977;51.510;7.522;2022-09-12T05:06:50;28.33;;;13.82;;
58362;SDS011;54977;51.510;7.522;2022-09-12T05:11:54;21.55;;;12.65;;
58362;SDS011;54977;51.510;7.522;2022-09-12T05:16:56;25.25;;;12.60;;
58362;SDS011;54977;51.510;7.522;2022-09-12T05:22:00;25.23;;;13.52;;
58362;SDS011;54977;51.510;7.522;2022-09-12T05:27:05;25.30;;;13.05;;
58362;SDS011;54977;51.510;7.522;2022-09-12T05:32:07;22.15;;;12.20;;
58362;SDS011;54977;51.510;7.522;2022-09-12T05:37:11;25.23;;;12.68;;
58362;SDS011;54977;51.510;7.522;2022-09-12T05:42:14;20.33;;;12.00;;
58362;SDS011;54977;51.510;7.522;2022-09-12T05:47:17;19.27;;;12.00;;
58362;SDS011;54977;51.510;7.522;2022-09-12T05:52:19;20.80;;;12.30;;
58362;SDS011;54977;51.510;7.522;2022-09-12T05:57:22;23.10;;;13.52;;
58362;SDS011;54977;51.510;7.522;2022-09-12T06:02:25;22.05;;;12.70;;
58362;SDS011;54977;51.510;7.522;2022-09-12T06:07:27;20.02;;;12.15;;
58362;SDS011;54977;51.510;7.522;2022-09-12T06:12:31;19.75;;;11.85;;
58362;SDS011;54977;51.510;7.522;2022-09-12T06:17:33;19.17;;;11.30;;
58362;SDS011;54977;51.510;7.522;2022-09-12T06:22:35;15.43;;;11.02;;
58362;SDS011;54977;51.510;7.522;2022-09-12T06:27:39;16.27;;;11.18;;
58362;SDS011;54977;51.510;7.522;2022-09-12T06:32:42;17.77;;;10.38;;
58362;SDS011;54977;51.510;7.522;2022-09-12T06:37:44;18.30;;;11.10;;
58362;SDS011;54977;51.510;7.522;2022-09-12T06:42:47;16.13;;;9.93;;
58362;SDS011;54977;51.510;7.522;2022-09-12T06:47:49;14.70;;;9.18;;
58362;SDS011;54977;51.510;7.522;2022-09-12T06:52:51;12.63;;;8.95;;
58362;SDS011;54977;51.510;7.522;2022-09-12T06:57:55;11.93;;;8.07;;
58362;SDS011;54977;51.510;7.522;2022-09-12T07:02:57;15.05;;;8.65;;
58362;SDS011;54977;51.510;7.522;2022-09-12T07:07:59;13.63;;;8.95;;
58362;SDS011;54977;51.510;7.522;2022-09-12T07:13:02;16.55;;;9.52;;
58362;SDS011;54977;51.510;7.522;2022-09-12T07:18:05;16.20;;;9.63;;
58362;SDS011;54977;51.510;7.522;2022-09-12T07:23:07;14.27;;;8.68;;
58362;SDS011;54977;51.510;7.522;2022-09-12T07:28:10;14.98;;;9.30;;
58362;SDS011;54977;51.510;7.522;2022-09-12T07:33:12;15.77;;;9.00;;
58362;SDS011;54977;51.510;7.522;2022-09-12T07:38:14;17.13;;;8.27;;
58362;SDS011;54977;51.510;7.522;2022-09-12T07:43:17;12.63;;;7.97;;
58362;SDS011;54977;51.510;7.522;2022-09-12T07:48:19;12.60;;;7.68;;
58362;SDS011;54977;51.510;7.522;2022-09-12T07:53:22;13.25;;;6.90;;
58362;SDS011;54977;51.510;7.522;2022-09-12T07:58:25;10.75;;;7.20;;
58362;SDS011;54977;51.510;7.522;2022-09-12T08:03:27;12.10;;;7.65;;
58362;SDS011;54977;51.510;7.522;2022-09-12T08:08:30;11.05;;;7.57;;
58362;SDS011;54977;51.510;7.522;2022-09-12T08:13:33;11.73;;;7.50;;
58362;SDS011;54977;51.510;7.522;2022-09-12T08:18:36;12.85;;;8.07;;
58362;SDS011;54977;51.510;7.522;2022-09-12T08:23:39;12.35;;;7.90;;
58362;SDS011;54977;51.510;7.522;2022-09-12T08:28:43;13.35;;;8.48;;
58362;SDS011;54977;51.510;7.522;2022-09-12T08:33:45;13.95;;;8.52;;
58362;SDS011;54977;51.510;7.522;2022-09-12T08:38:48;12.25;;;8.30;;
58362;SDS011;54977;51.510;7.522;2022-09-12T08:43:55;10.85;;;7.68;;
58362;SDS011;54977;51.510;7.522;2022-09-12T08:49:14;11.75;;;7.88;;
58362;SDS011;54977;51.510;7.522;2022-09-12T08:54:26;12.75;;;8.23;;
58362;SDS011;54977;51.510;7.522;2022-09-12T08:59:32;10.35;;;7.68;;
58362;SDS011;54977;51.510;7.522;2022-09-12T09:04:42;14.23;;;8.48;;
58362;SDS011;54977;51.510;7.522;2022-09-12T09:15:05;14.60;;;7.53;;
58362;SDS011;54977;51.510;7.522;2022-09-12T09:20:22;12.68;;;7.93;;
58362;SDS011;54977;51.510;7.522;2022-09-12T09:25:35;10.77;;;7.45;;
58362;SDS011;54977;51.510;7.522;2022-09-12T09:30:44;12.27;;;8.00;;
58362;SDS011;54977;51.510;7.522;2022-09-12T09:35:46;11.80;;;7.60;;
58362;SDS011;54977;51.510;7.522;2022-09-12T09:41:00;10.82;;;7.45;;
58362;SDS011;54977;51.510;7.522;2022-09-12T09:46:11;12.52;;;6.57;;
58362;SDS011;54977;51.510;7.522;2022-09-12T09:51:14;10.98;;;7.03;;
58362;SDS011;54977;51.510;7.522;2022-09-12T09:56:27;10.88;;;6.75;;
58362;SDS011;54977;51.510;7.522;2022-09-12T10:01:31;8.98;;;6.55;;
58362;SDS011;54977;51.510;7.522;2022-09-12T10:06:40;7.80;;;5.80;;
58362;SDS011;54977;51.510;7.522;2022-09-12T10:11:42;9.05;;;5.78;;
58362;SDS011;54977;51.510;7.522;2022-09-12T10:16:49;9.23;;;5.82;;
58362;SDS011;54977;51.510;7.522;2022-09-12T10:21:52;10.75;;;5.50;;
58362;SDS011;54977;51.510;7.522;2022-09-12T10:26:57;7.65;;;5.55;;
58362;SDS011;54977;51.510;7.522;2022-09-12T10:32:09;8.15;;;5.95;;
58362;SDS011;54977;51.510;7.522;2022-09-12T10:37:16;7.35;;;5.18;;
58362;SDS011;54977;51.510;7.522;2022-09-12T10:47:50;7.72;;;3.92;;
58362;SDS011;54977;51.510;7.522;2022-09-12T10:52:52;5.60;;;3.95;;
58362;SDS011;54977;51.510;7.522;2022-09-12T10:58:07;5.03;;;4.10;;
58362;SDS011;54977;51.510;7.522;2022-09-12T11:03:22;5.20;;;3.40;;
58362;SDS011;54977;51.510;7.522;2022-09-12T11:14:06;6.50;;;3.58;;
58362;SDS011;54977;51.510;7.522;2022-09-12T11:19:26;6.30;;;4.10;;
58362;SDS011;54977;51.510;7.522;2022-09-12T11:24:42;5.28;;;3.65;;
58362;SDS011;54977;51.510;7.522;2022-09-12T11:30:12;4.35;;;2.90;;
58362;SDS011;54977;51.510;7.522;2022-09-12T11:35:18;3.53;;;3.05;;
58362;SDS011;54977;51.510;7.522;2022-09-12T11:40:26;3.88;;;2.90;;
58362;SDS011;54977;51.510;7.522;2022-09-12T11:45:33;4.05;;;3.10;;
58362;SDS011;54977;51.510;7.522;2022-09-12T11:50:40;7.32;;;3.40;;
58362;SDS011;54977;51.510;7.522;2022-09-12T11:55:47;4.68;;;2.83;;
58362;SDS011;54977;51.510;7.522;2022-09-12T12:00:55;3.80;;;2.35;;
58362;SDS011;54977;51.510;7.522;2022-09-12T12:06:05;3.58;;;2.60;;
58362;SDS011;54977;51.510;7.522;2022-09-12T12:11:12;4.20;;;2.90;;
58362;SDS011;54977;51.510;7.522;2022-09-12T12:16:16;4.22;;;2.65;;
58362;SDS011;54977;51.510;7.522;2022-09-12T12:21:32;5.47;;;2.83;;
58362;SDS011;54977;51.510;7.522;2022-09-12T12:26:43;3.58;;;2.72;;
58362;SDS011;54977;51.510;7.522;2022-09-12T12:47:43;2.47;;;2.03;;
58362;SDS011;54977;51.510;7.522;2022-09-12T12:52:48;3.13;;;2.20;;
58362;SDS011;54977;51.510;7.522;2022-09-12T12:57:51;2.97;;;2.33;;
58362;SDS011;54977;51.510;7.522;2022-09-12T13:02:56;3.78;;;2.67;;
58362;SDS011;54977;51.510;7.522;2022-09-12T13:08:01;4.32;;;2.10;;
58362;SDS011;54977;51.510;7.522;2022-09-12T13:13:05;2.97;;;2.40;;
58362;SDS011;54977;51.510;7.522;2022-09-12T13:18:10;2.97;;;2.38;;
58362;SDS011;54977;51.510;7.522;2022-09-12T13:23:19;4.43;;;2.40;;
58362;SDS011;54977;51.510;7.522;2022-09-12T13:28:22;2.85;;;2.17;;
58362;SDS011;54977;51.510;7.522;2022-09-12T13:33:28;5.63;;;2.90;;
58362;SDS011;54977;51.510;7.522;2022-09-12T13:38:33;2.92;;;2.10;;
58362;SDS011;54977;51.510;7.522;2022-09-12T13:43:44;2.70;;;2.17;;
58362;SDS011;54977;51.510;7.522;2022-09-12T13:48:48;4.00;;;2.30;;
58362;SDS011;54977;51.510;7.522;2022-09-12T13:53:51;3.67;;;2.10;;
58362;SDS011;54977;51.510;7.522;2022-09-12T13:58:55;3.25;;;2.33;;
58362;SDS011;54977;51.510;7.522;2022-09-12T14:03:59;5.95;;;1.90;;
58362;SDS011;54977;51.510;7.522;2022-09-12T14:09:22;2.70;;;2.38;;
58362;SDS011;54977;51.510;7.522;2022-09-12T14:14:26;5.93;;;2.40;;
58362;SDS011;54977;51.510;7.522;2022-09-12T14:19:31;3.53;;;1.90;;
58362;SDS011;54977;51.510;7.522;2022-09-12T14:24:34;3.13;;;2.10;;
58362;SDS011;54977;51.510;7.522;2022-09-12T14:29:36;2.78;;;2.33;;
58362;SDS011;54977;51.510;7.522;2022-09-12T14:34:53;3.80;;;2.20;;
58362;SDS011;54977;51.510;7.522;2022-09-12T14:40:11;3.00;;;1.98;;
58362;SDS011;54977;51.510;7.522;2022-09-12T14:45:21;2.88;;;2.28;;
58362;SDS011;54977;51.510;7.522;2022-09-12T14:50:26;2.50;;;2.05;;
58362;SDS011;54977;51.510;7.522;2022-09-12T14:55:31;3.00;;;1.80;;
58362;SDS011;54977;51.510;7.522;2022-09-12T15:00:33;2.70;;;2.13;;
58362;SDS011;54977;51.510;7.522;2022-09-12T15:05:46;2.47;;;1.73;;
58362;SDS011;54977;51.510;7.522;2022-09-12T15:10:49;3.85;;;2.25;;
58362;SDS011;54977;51.510;7.522;2022-09-12T15:15:52;3.20;;;2.53;;
58362;SDS011;54977;51.510;7.522;2022-09-12T15:20:56;2.70;;;2.10;;
58362;SDS011;54977;51.510;7.522;2022-09-12T15:25:58;4.32;;;2.13;;
58362;SDS011;54977;51.510;7.522;2022-09-12T15:31:03;3.25;;;2.20;;
58362;SDS011;54977;51.510;7.522;2022-09-12T15:36:11;5.53;;;1.92;;
58362;SDS011;54977;51.510;7.522;2022-09-12T15:41:16;4.07;;;2.70;;
58362;SDS011;54977;51.510;7.522;2022-09-12T15:46:19;3.95;;;1.90;;
58362;SDS011;54977;51.510;7.522;2022-09-12T15:51:22;2.40;;;2.00;;
58362;SDS011;54977;51.510;7.522;2022-09-12T15:56:24;3.25;;;1.80;;
58362;SDS011;54977;51.510;7.522;2022-09-12T16:01:26;4.85;;;1.67;;
58362;SDS011;54977;51.510;7.522;2022-09-12T16:06:30;2.65;;;1.70;;
58362;SDS011;54977;51.510;7.522;2022-09-12T16:11:33;4.03;;;1.83;;
58362;SDS011;54977;51.510;7.522;2022-09-12T16:16:35;2.92;;;2.00;;
58362;SDS011;54977;51.510;7.522;2022-09-12T16:21:38;2.40;;;1.60;;
58362;SDS011;54977;51.510;7.522;2022-09-12T16:26:40;2.75;;;1.73;;
58362;SDS011;54977;51.510;7.522;2022-09-12T16:31:42;3.13;;;1.83;;
58362;SDS011;54977;51.510;7.522;2022-09-12T16:36:45;2.95;;;2.10;;
58362;SDS011;54977;51.510;7.522;2022-09-12T16:41:47;3.15;;;2.08;;
58362;SDS011;54977;51.510;7.522;2022-09-12T16:46:48;3.22;;;2.10;;
58362;SDS011;54977;51.510;7.522;2022-09-12T16:51:52;5.07;;;2.10;;
58362;SDS011;54977;51.510;7.522;2022-09-12T16:56:53;3.70;;;2.20;;
58362;SDS011;54977;51.510;7.522;2022-09-12T17:01:55;3.65;;;2.20;;
58362;SDS011;54977;51.510;7.522;2022-09-12T17:06:59;3.67;;;2.00;;
58362;SDS011;54977;51.510;7.522;2022-09-12T17:12:01;3.00;;;2.30;;
58362;SDS011;54977;51.510;7.522;2022-09-12T17:17:03;5.47;;;2.45;;
58362;SDS011;54977;51.510;7.522;2022-09-12T17:22:07;4.57;;;2.30;;
58362;SDS011;54977;51.510;7.522;2022-09-12T17:27:08;5.00;;;2.40;;
58362;SDS011;54977;51.510;7.522;2022-09-12T17:32:11;6.00;;;2.40;;
58362;SDS011;54977;51.510;7.522;2022-09-12T17:37:14;4.68;;;2.80;;
58362;SDS011;54977;51.510;7.522;2022-09-12T17:42:16;4.72;;;2.70;;
58362;SDS011;54977;51.510;7.522;2022-09-12T17:47:19;5.15;;;3.38;;
58362;SDS011;54977;51.510;7.522;2022-09-12T17:52:22;5.32;;;3.20;;
58362;SDS011;54977;51.510;7.522;2022-09-12T17:57:24;7.80;;;2.90;;
58362;SDS011;54977;51.510;7.522;2022-09-12T18:02:25;6.20;;;2.90;;
58362;SDS011;54977;51.510;7.522;2022-09-12T18:07:29;5.20;;;3.75;;
58362;SDS011;54977;51.510;7.522;2022-09-12T18:12:31;7.65;;;4.28;;
58362;SDS011;54977;51.510;7.522;2022-09-12T18:17:35;6.35;;;4.55;;
58362;SDS011;54977;51.510;7.522;2022-09-12T18:22:40;8.23;;;4.35;;
58362;SDS011;54977;51.510;7.522;2022-09-12T18:27:42;6.88;;;4.50;;
58362;SDS011;54977;51.510;7.522;2022-09-12T18:32:43;6.95;;;4.07;;
58362;SDS011;54977;51.510;7.522;2022-09-12T18:37:47;7.25;;;3.63;;
58362;SDS011;54977;51.510;7.522;2022-09-12T18:42:48;5.00;;;3.88;;
58362;SDS011;54977;51.510;7.522;2022-09-12T18:47:51;8.00;;;4.50;;
58362;SDS011;54977;51.510;7.522;2022-09-12T18:52:54;9.85;;;4.20;;
58362;SDS011;54977;51.510;7.522;2022-09-12T18:57:56;6.22;;;4.53;;
58362;SDS011;54977;51.510;7.522;2022-09-12T19:02:58;7.68;;;4.10;;
58362;SDS011;54977;51.510;7.522;2022-09-12T19:08:01;8.55;;;4.35;;
58362;SDS011;54977;51.510;7.522;2022-09-12T19:13:03;8.00;;;4.60;;
58362;SDS011;54977;51.510;7.522;2022-09-12T19:18:05;8.73;;;5.03;;
58362;SDS011;54977;51.510;7.522;2022-09-12T19:23:09;7.30;;;4.57;;
58362;SDS011;54977;51.510;7.522;2022-09-12T19:28:11;10.65;;;5.07;;
58362;SDS011;54977;51.510;7.522;2022-09-12T19:33:13;8.68;;;5.32;;
58362;SDS011;54977;51.510;7.522;2022-09-12T19:38:16;10.68;;;5.03;;
58362;SDS011;54977;51.510;7.522;2022-09-12T19:43:18;6.50;;;5.00;;
58362;SDS011;54977;51.510;7.522;2022-09-12T19:48:20;9.05;;;5.47;;
58362;SDS011;54977;51.510;7.522;2022-09-12T19:53:24;7.28;;;5.00;;
58362;SDS011;54977;51.510;7.522;2022-09-12T19:58:25;6.47;;;4.70;;
58362;SDS011;54977;51.510;7.522;2022-09-12T20:03:27;6.25;;;4.63;;
58362;SDS011;54977;51.510;7.522;2022-09-12T20:08:31;11.32;;;5.72;;
58362;SDS011;54977;51.510;7.522;2022-09-12T20:13:33;6.97;;;4.57;;
58362;SDS011;54977;51.510;7.522;2022-09-12T20:18:35;6.40;;;4.47;;
58362;SDS011;54977;51.510;7.522;2022-09-12T20:23:39;8.63;;;4.45;;
58362;SDS011;54977;51.510;7.522;2022-09-12T20:28:41;7.40;;;4.15;;
58362;SDS011;54977;51.510;7.522;2022-09-12T20:33:43;7.07;;;5.00;;
58362;SDS011;54977;51.510;7.522;2022-09-12T20:38:47;8.40;;;5.32;;
58362;SDS011;54977;51.510;7.522;2022-09-12T20:43:50;7.82;;;4.90;;
58362;SDS011;54977;51.510;7.522;2022-09-12T20:48:53;7.32;;;4.30;;
58362;SDS011;54977;51.510;7.522;2022-09-12T20:53:57;9.20;;;4.40;;
58362;SDS011;54977;51.510;7.522;2022-09-12T20:59:00;6.72;;;3.95;;
58362;SDS011;54977;51.510;7.522;2022-09-12T21:04:03;4.97;;;3.90;;
58362;SDS011;54977;51.510;7.522;2022-09-12T21:09:06;5.40;;;3.78;;
58362;SDS011;54977;51.510;7.522;2022-09-12T21:14:08;5.15;;;3.50;;
58362;SDS011;54977;51.510;7.522;2022-09-12T21:19:10;8.32;;;3.53;;
58362;SDS011;54977;51.510;7.522;2022-09-12T21:24:13;6.43;;;3.58;;
58362;SDS011;54977;51.510;7.522;2022-09-12T21:29:15;5.03;;;3.20;;
58362;SDS011;54977;51.510;7.522;2022-09-12T21:34:16;6.22;;;3.38;;
58362;SDS011;54977;51.510;7.522;2022-09-12T21:39:20;4.72;;;3.00;;
58362;SDS011;54977;51.510;7.522;2022-09-12T21:44:21;4.95;;;3.55;;
58362;SDS011;54977;51.510;7.522;2022-09-12T21:49:23;4.53;;;3.30;;
58362;SDS011;54977;51.510;7.522;2022-09-12T21:54:27;4.40;;;3.40;;
58362;SDS011;54977;51.510;7.522;2022-09-12T21:59:28;4.85;;;3.17;;
58362;SDS011;54977;51.510;7.522;2022-09-12T22:04:30;4.05;;;3.17;;
58362;SDS011;54977;51.510;7.522;2022-09-12T22:09:33;4.50;;;3.00;;
58362;SDS011;54977;51.510;7.522;2022-09-12T22:14:35;3.88;;;3.00;;
58362;SDS011;54977;51.510;7.522;2022-09-12T22:19:37;6.15;;;3.22;;
58362;SDS011;54977;51.510;7.522;2022-09-12T22:24:41;4.72;;;3.40;;
58362;SDS011;54977;51.510;7.522;2022-09-12T22:29:43;5.65;;;3.22;;
58362;SDS011;54977;51.510;7.522;2022-09-12T22:34:45;4.45;;;3.50;;
58362;SDS011;54977;51.510;7.522;2022-09-12T22:39:48;6.30;;;3.30;;
58362;SDS011;54977;51.510;7.522;2022-09-12T22:44:50;4.47;;;3.30;;
58362;SDS011;54977;51.510;7.522;2022-09-12T22:49:52;6.10;;;4.28;;
58362;SDS011;54977;51.510;7.522;2022-09-12T22:54:55;6.75;;;3.75;;
58362;SDS011;54977;51.510;7.522;2022-09-12T22:59:57;4.95;;;3.33;;
58362;SDS011;54977;51.510;7.522;2022-09-12T23:04:59;5.25;;;3.67;;
58362;SDS011;54977;51.510;7.522;2022-09-12T23:10:03;5.97;;;3.70;;
58362;SDS011;54977;51.510;7.522;2022-09-12T23:15:05;5.07;;;3.25;;
58362;SDS011;54977;51.510;7.522;2022-09-12T23:20:09;6.10;;;3.47;;
58362;SDS011;54977;51.510;7.522;2022-09-12T23:25:12;5.57;;;3.45;;
58362;SDS011;54977;51.510;7.522;2022-09-12T23:30:14;4.32;;;3.33;;
58362;SDS011;54977;51.510;7.522;2022-09-12T23:35:16;8.40;;;3.08;;
58362;SDS011;54977;51.510;7.522;2022-09-12T23:40:20;5.15;;;3.50;;
58362;SDS011;54977;51.510;7.522;2022-09-12T23:45:22;5.15;;;3.05;;
58362;SDS011;54977;51.510;7.522;2022-09-12T23:50:24;4.28;;;2.97;;
58362;SDS011;54977;51.510;7.522;2022-09-12T23:55:27;4.35;;;3.10;;
